Time;durP1;ratioP1;P1;durP2;ratioP2;P2;SDS_P1;SDS_P2;PMS_P1;PMS_P2;Temp;Humidity;BMP_temperature;BMP_pressure;BME280_temperature;BME280_humidity;BME280_pressure;Samples;Min_cycle;Max_cycle;Signal;HPM_P1;HPM_P2
2023/11/20 00:00:12;;;;;;;5.22;3.33;;;11.60;99.90;;;;;;5043984;28;20199;-38
2023/11/20 00:02:42;;;;;;;6.85;4.13;;;11.60;99.90;;;;;;5046664;28;20202;-38
2023/11/20 00:05:11;;;;;;;8.98;4.30;;;11.60;99.90;;;;;;5045971;28;20219;-36
2023/11/20 00:07:37;;;;;;;7.32;3.60;;;11.70;99.90;;;;;;5046860;28;20229;-38
2023/11/20 00:10:04;;;;;;;8.20;3.80;;;11.70;99.90;;;;;;5044945;28;20888;-41
2023/11/20 00:12:31;;;;;;;7.93;3.83;;;11.70;99.90;;;;;;5042007;28;20210;-41
2023/11/20 00:14:58;;;;;;;11.60;6.57;;;11.70;99.90;;;;;;5051631;28;20191;-36
2023/11/20 00:17:25;;;;;;;12.48;6.03;;;11.70;99.90;;;;;;5050462;28;20240;-41
2023/11/20 00:19:51;;;;;;;12.05;6.07;;;11.70;99.90;;;;;;5050188;28;20202;-38
2023/11/20 00:22:17;;;;;;;10.30;5.75;;;11.70;99.90;;;;;;5053639;28;20198;-38
2023/11/20 00:24:43;;;;;;;12.30;6.10;;;11.70;99.90;;;;;;5048996;28;20225;-41
2023/11/20 00:27:09;;;;;;;11.07;6.05;;;11.70;99.90;;;;;;5050054;28;20219;-38
2023/11/20 00:29:37;;;;;;;8.52;4.03;;;11.80;99.90;;;;;;5052266;28;20635;-42
2023/11/20 00:32:03;;;;;;;8.18;3.40;;;11.80;99.90;;;;;;5051566;28;20269;-41
2023/11/20 00:34:29;;;;;;;5.03;3.17;;;11.80;99.90;;;;;;5051183;28;20218;-38
2023/11/20 00:36:55;;;;;;;3.97;2.30;;;11.70;99.90;;;;;;5049331;28;20178;-39
2023/11/20 00:39:21;;;;;;;2.88;1.98;;;11.80;99.90;;;;;;5049272;28;20204;-40
2023/11/20 00:41:47;;;;;;;2.30;1.73;;;11.80;99.90;;;;;;5050335;28;20214;-41
2023/11/20 00:44:15;;;;;;;2.58;1.58;;;11.80;99.90;;;;;;5049936;28;20241;-41
2023/11/20 00:46:41;;;;;;;2.25;1.40;;;11.70;99.90;;;;;;5048424;28;20202;-37
2023/11/20 00:49:07;;;;;;;2.55;1.70;;;11.80;99.90;;;;;;5049736;28;20605;-39
2023/11/20 00:51:33;;;;;;;1.85;1.58;;;11.80;99.90;;;;;;5051725;28;20206;-38
2023/11/20 00:53:59;;;;;;;2.00;1.77;;;11.80;99.90;;;;;;5064438;28;20636;-38
2023/11/20 00:56:26;;;;;;;6.68;1.77;;;11.80;99.90;;;;;;5067351;28;20187;-42
2023/11/20 00:58:52;;;;;;;3.15;2.03;;;11.80;99.90;;;;;;5054129;28;20188;-42
2023/11/20 01:01:18;;;;;;;3.97;1.77;;;11.80;99.90;;;;;;5050595;28;20193;-39
2023/11/20 01:03:44;;;;;;;2.55;1.80;;;11.80;99.90;;;;;;5048711;28;20199;-40
2023/11/20 01:06:09;;;;;;;2.45;2.00;;;11.80;99.90;;;;;;5049812;28;20211;-40
2023/11/20 01:08:35;;;;;;;3.67;2.28;;;11.80;99.90;;;;;;5052849;28;20610;-46
2023/11/20 01:11:09;;;;;;;3.83;2.13;;;11.90;99.90;;;;;;5051010;28;20549;-41
2023/11/20 01:13:36;;;;;;;3.25;2.20;;;11.80;99.90;;;;;;5059464;28;20313;-41
2023/11/20 01:16:04;;;;;;;4.07;2.30;;;11.80;99.90;;;;;;5049759;28;20190;-43
2023/11/20 01:18:31;;;;;;;5.03;2.55;;;11.80;99.90;;;;;;5051698;28;20178;-42
2023/11/20 01:20:57;;;;;;;5.65;2.30;;;11.80;99.90;;;;;;5042713;28;20955;-43
2023/11/20 01:23:24;;;;;;;6.50;2.72;;;11.80;99.90;;;;;;5049339;28;20219;-39
2023/11/20 01:25:51;;;;;;;7.05;2.90;;;11.80;99.90;;;;;;5049925;28;20175;-39
2023/11/20 01:28:16;;;;;;;4.85;2.70;;;11.80;99.90;;;;;;5048503;28;20193;-42
2023/11/20 01:30:42;;;;;;;4.68;2.72;;;11.90;99.90;;;;;;5067261;28;20948;-36
2023/11/20 01:33:09;;;;;;;5.88;2.85;;;11.80;99.90;;;;;;5049906;28;20222;-39
2023/11/20 01:35:35;;;;;;;4.07;2.50;;;11.80;99.90;;;;;;5052272;28;20194;-39
2023/11/20 01:38:00;;;;;;;7.75;2.90;;;11.90;99.90;;;;;;5049076;28;20190;-44
2023/11/20 01:40:26;;;;;;;5.85;2.78;;;11.80;99.90;;;;;;5050318;28;20527;-38
2023/11/20 01:42:52;;;;;;;6.32;2.90;;;11.80;99.90;;;;;;5063954;28;20202;-41
2023/11/20 01:45:19;;;;;;;5.95;2.97;;;11.80;99.90;;;;;;5049560;28;20254;-37
2023/11/20 01:47:47;;;;;;;5.68;2.80;;;11.80;99.90;;;;;;5052821;28;20660;-40
2023/11/20 01:50:14;;;;;;;6.10;2.88;;;11.80;99.90;;;;;;5050610;28;20598;-45
2023/11/20 01:52:42;;;;;;;9.57;3.10;;;11.70;99.90;;;;;;5047457;28;20215;-40
2023/11/20 01:55:10;;;;;;;7.57;3.78;;;11.80;99.90;;;;;;5050245;28;20187;-40
2023/11/20 01:57:38;;;;;;;6.85;3.90;;;11.80;99.90;;;;;;5050725;28;20183;-38
2023/11/20 02:00:09;;;;;;;8.15;4.65;;;11.80;99.90;;;;;;5047911;28;20198;-37
2023/11/20 02:02:42;;;;;;;15.45;7.25;;;11.80;99.90;;;;;;5049036;28;20199;-42
2023/11/20 02:05:09;;;;;;;17.17;8.13;;;11.80;99.90;;;;;;5047588;28;20630;-39
2023/11/20 02:07:36;;;;;;;18.63;8.00;;;11.80;99.90;;;;;;5030018;28;20225;-42
2023/11/20 02:10:03;;;;;;;16.25;8.25;;;11.80;99.90;;;;;;5062335;28;20225;-40
2023/11/20 02:12:30;;;;;;;16.13;8.10;;;11.90;99.90;;;;;;5050832;28;20218;-41
2023/11/20 02:14:57;;;;;;;18.70;9.20;;;11.90;99.90;;;;;;5063927;28;20655;-39
2023/11/20 02:17:23;;;;;;;18.23;8.75;;;11.90;99.90;;;;;;5042253;28;20232;-36
2023/11/20 02:19:49;;;;;;;17.00;8.55;;;11.80;99.90;;;;;;5052717;28;20191;-40
2023/11/20 02:22:15;;;;;;;16.88;8.20;;;11.90;99.90;;;;;;5045859;28;20190;-38
2023/11/20 02:24:46;;;;;;;14.20;6.75;;;11.90;99.90;;;;;;5047374;28;20705;-38
2023/11/20 02:27:35;;;;;;;10.93;5.18;;;11.80;99.90;;;;;;5032566;28;20186;-37
2023/11/20 02:30:05;;;;;;;6.82;3.85;;;11.80;99.90;;;;;;5048852;28;20237;-40
2023/11/20 02:32:33;;;;;;;5.72;3.20;;;11.90;99.90;;;;;;5049770;28;20685;-39
2023/11/20 02:34:59;;;;;;;7.70;3.40;;;11.90;99.90;;;;;;5050314;28;20203;-38
2023/11/20 02:37:27;;;;;;;5.00;2.75;;;11.90;99.90;;;;;;5044520;28;20187;-39
2023/11/20 02:39:53;;;;;;;6.70;2.85;;;11.90;99.90;;;;;;5045602;28;20224;-37
2023/11/20 02:42:20;;;;;;;10.73;3.03;;;11.80;99.90;;;;;;5048411;28;20230;-38
2023/11/20 02:44:47;;;;;;;5.45;3.20;;;11.80;99.90;;;;;;5048637;28;20218;-42
2023/11/20 02:47:13;;;;;;;4.43;3.15;;;11.80;99.90;;;;;;5051787;28;20655;-37
2023/11/20 02:49:39;;;;;;;6.38;3.08;;;11.90;99.90;;;;;;5064037;28;20308;-37
2023/11/20 02:52:06;;;;;;;5.72;3.50;;;11.80;99.90;;;;;;5047156;28;20207;-38
2023/11/20 02:54:33;;;;;;;6.85;3.97;;;11.90;99.90;;;;;;5063549;28;20183;-44
2023/11/20 02:57:00;;;;;;;8.07;3.90;;;11.80;99.90;;;;;;5045749;28;20211;-40
2023/11/20 02:59:28;;;;;;;5.63;3.35;;;11.80;99.90;;;;;;5047465;28;20546;-39
2023/11/20 03:01:55;;;;;;;7.25;4.05;;;11.90;99.90;;;;;;5050700;28;20290;-41
2023/11/20 03:04:21;;;;;;;6.97;3.90;;;11.90;99.90;;;;;;5051068;28;20179;-40
2023/11/20 03:06:47;;;;;;;7.90;4.35;;;11.90;99.90;;;;;;5065170;28;20312;-41
2023/11/20 03:09:13;;;;;;;12.50;6.80;;;11.90;99.90;;;;;;5048546;28;20211;-38
2023/11/20 03:11:39;;;;;;;17.92;9.50;;;11.90;99.90;;;;;;5049528;28;20199;-41
2023/11/20 03:14:05;;;;;;;19.05;9.32;;;11.90;99.90;;;;;;5047858;28;20292;-45
2023/11/20 03:16:31;;;;;;;18.83;9.27;;;11.90;99.90;;;;;;5050039;28;20273;-39
2023/11/20 03:19:00;;;;;;;16.85;9.07;;;11.90;99.90;;;;;;5047023;28;20194;-39
2023/11/20 03:21:27;;;;;;;17.00;8.77;;;11.90;99.90;;;;;;5058672;28;20269;-42
2023/11/20 03:23:54;;;;;;;17.63;8.73;;;11.90;99.90;;;;;;5045886;28;20575;-37
2023/11/20 03:26:24;;;;;;;17.38;9.52;;;11.90;99.90;;;;;;5048708;28;20243;-42
2023/11/20 03:28:50;;;;;;;19.55;9.32;;;11.90;99.90;;;;;;5046200;28;20643;-40
2023/11/20 03:31:17;;;;;;;16.88;8.95;;;11.90;99.90;;;;;;5047915;28;20230;-38
2023/11/20 03:33:46;;;;;;;15.52;7.55;;;11.90;99.90;;;;;;5046521;28;20655;-39
2023/11/20 03:36:15;;;;;;;18.50;7.57;;;11.90;99.90;;;;;;5046029;28;20186;-38
2023/11/20 03:38:42;;;;;;;10.35;6.03;;;11.90;99.90;;;;;;5045062;28;20612;-40
2023/11/20 03:41:08;;;;;;;11.40;5.72;;;11.90;99.90;;;;;;5050807;28;20175;-41
2023/11/20 03:43:35;;;;;;;10.93;5.53;;;11.90;99.90;;;;;;5043728;28;20664;-42
2023/11/20 03:46:01;;;;;;;10.65;5.97;;;12.00;99.90;;;;;;5049378;28;20278;-38
2023/11/20 03:48:27;;;;;;;11.02;5.65;;;11.90;99.90;;;;;;5056898;28;20226;-41
2023/11/20 03:50:53;;;;;;;14.20;5.78;;;12.00;99.90;;;;;;5044307;28;20191;-37
2023/11/20 03:53:19;;;;;;;13.40;5.57;;;12.00;99.90;;;;;;5048004;28;20216;-41
2023/11/20 03:55:45;;;;;;;10.20;6.03;;;12.00;99.90;;;;;;5047643;28;20210;-38
2023/11/20 03:58:11;;;;;;;13.30;6.68;;;11.90;99.90;;;;;;5047340;28;20218;-38
2023/11/20 04:00:37;;;;;;;11.20;5.80;;;12.00;99.90;;;;;;5046419;28;20207;-39
2023/11/20 04:03:03;;;;;;;13.45;6.47;;;12.00;99.90;;;;;;5045311;28;20183;-37
2023/11/20 04:05:29;;;;;;;14.40;7.00;;;12.00;99.90;;;;;;5045775;28;20199;-40
2023/11/20 04:07:54;;;;;;;13.65;6.97;;;12.00;99.90;;;;;;5047549;28;20190;-42
2023/11/20 04:10:21;;;;;;;11.32;6.47;;;11.90;99.90;;;;;;5045888;28;20190;-41
2023/11/20 04:12:47;;;;;;;11.65;6.25;;;12.00;99.90;;;;;;5047519;28;20594;-38
2023/11/20 04:15:13;;;;;;;15.80;7.60;;;12.00;99.90;;;;;;5045703;28;20187;-39
2023/11/20 04:17:39;;;;;;;17.35;8.45;;;12.00;99.90;;;;;;5063286;28;20239;-43
2023/11/20 04:20:06;;;;;;;15.93;8.63;;;12.00;99.90;;;;;;5046478;28;20187;-43
2023/11/20 04:22:32;;;;;;;12.05;6.70;;;12.00;99.90;;;;;;5049103;28;20191;-45
2023/11/20 04:25:00;;;;;;;15.80;7.30;;;12.00;99.90;;;;;;5047438;28;20661;-39
2023/11/20 04:27:26;;;;;;;13.95;8.25;;;12.00;99.90;;;;;;5045647;28;20191;-42
2023/11/20 04:29:52;;;;;;;18.13;8.35;;;12.00;99.90;;;;;;5046634;28;20194;-40
2023/11/20 04:32:18;;;;;;;17.40;8.88;;;12.00;99.90;;;;;;5050192;28;20247;-40
2023/11/20 04:34:44;;;;;;;18.63;8.38;;;12.00;99.90;;;;;;5045341;28;21231;-40
2023/11/20 04:37:10;;;;;;;17.00;8.32;;;12.00;99.90;;;;;;5046703;28;20202;-42
2023/11/20 04:39:36;;;;;;;15.25;6.97;;;12.00;99.90;;;;;;5051650;28;20184;-40
2023/11/20 04:42:03;;;;;;;17.95;7.50;;;12.00;99.90;;;;;;5044208;28;20344;-40
2023/11/20 04:44:29;;;;;;;15.32;6.90;;;12.00;99.90;;;;;;5045320;28;20294;-49
2023/11/20 04:46:55;;;;;;;17.52;7.55;;;12.00;99.90;;;;;;5046920;28;20293;-41
2023/11/20 04:49:21;;;;;;;18.98;7.50;;;12.00;99.90;;;;;;5045725;28;20231;-45
2023/11/20 04:51:47;;;;;;;20.80;7.47;;;12.00;99.90;;;;;;5062893;28;20813;-40
2023/11/20 04:54:13;;;;;;;20.40;7.10;;;11.90;99.90;;;;;;5046935;28;20175;-41
2023/11/20 04:56:39;;;;;;;17.88;7.10;;;11.90;99.90;;;;;;5048345;28;20297;-45
2023/11/20 04:59:05;;;;;;;16.90;6.90;;;11.90;99.90;;;;;;5047716;28;20219;-47
2023/11/20 05:01:32;;;;;;;21.65;7.82;;;11.90;99.90;;;;;;5065367;28;20191;-43
2023/11/20 05:03:59;;;;;;;18.38;7.32;;;11.90;99.90;;;;;;5047260;28;20647;-41
2023/11/20 05:06:25;;;;;;;15.88;6.88;;;11.90;99.90;;;;;;5052171;28;20191;-41
2023/11/20 05:08:50;;;;;;;15.18;7.35;;;11.90;99.90;;;;;;5051550;28;20237;-38
2023/11/20 05:11:16;;;;;;;16.50;6.75;;;11.90;99.90;;;;;;5048877;28;20191;-38
2023/11/20 05:13:43;;;;;;;13.63;5.85;;;11.90;99.90;;;;;;5050285;28;20199;-44
2023/11/20 05:16:09;;;;;;;12.27;5.20;;;11.90;99.90;;;;;;5050826;28;21117;-38
2023/11/20 05:18:35;;;;;;;12.65;5.38;;;11.90;99.90;;;;;;5045309;28;20239;-37
2023/11/20 05:21:01;;;;;;;9.10;4.50;;;11.90;99.90;;;;;;5048976;28;20198;-40
2023/11/20 05:23:27;;;;;;;8.48;4.82;;;11.90;99.90;;;;;;5051503;28;20236;-36
2023/11/20 05:25:54;;;;;;;9.10;4.47;;;11.90;99.90;;;;;;5049157;28;20187;-40
2023/11/20 05:28:20;;;;;;;6.55;4.30;;;11.80;99.90;;;;;;5051065;28;20277;-39
2023/11/20 05:30:46;;;;;;;8.48;4.70;;;11.80;99.90;;;;;;5049650;28;20214;-42
2023/11/20 05:33:12;;;;;;;8.95;4.43;;;11.80;99.90;;;;;;5047755;28;20234;-38
2023/11/20 05:35:41;;;;;;;10.23;4.60;;;11.80;99.90;;;;;;5049875;28;20190;-40
2023/11/20 05:38:07;;;;;;;11.93;5.75;;;11.80;99.90;;;;;;5048042;28;20188;-44
2023/11/20 05:40:33;;;;;;;12.52;5.82;;;11.80;99.90;;;;;;5052710;28;20277;-43
2023/11/20 05:42:59;;;;;;;13.63;6.57;;;11.80;99.90;;;;;;5051146;28;20216;-41
2023/11/20 05:45:25;;;;;;;13.93;6.88;;;11.70;99.90;;;;;;5047246;28;20187;-39
2023/11/20 05:47:51;;;;;;;11.02;5.97;;;11.70;99.90;;;;;;5047403;28;20282;-44
2023/11/20 05:50:18;;;;;;;9.40;5.47;;;11.70;99.90;;;;;;5051755;28;20310;-43
2023/11/20 05:52:44;;;;;;;9.80;5.85;;;11.70;99.90;;;;;;5049004;28;20211;-44
2023/11/20 05:55:09;;;;;;;8.55;4.90;;;11.70;99.90;;;;;;5046854;28;20195;-38
2023/11/20 05:57:36;;;;;;;6.25;4.03;;;11.70;99.90;;;;;;5066129;28;20922;-44
2023/11/20 06:00:03;;;;;;;6.88;4.13;;;11.70;99.90;;;;;;5050217;28;20237;-40
2023/11/20 06:02:37;;;;;;;6.47;3.50;;;11.70;99.90;;;;;;5048527;28;20197;-42
2023/11/20 06:05:04;;;;;;;4.43;3.00;;;11.70;99.90;;;;;;5048275;28;20606;-38
2023/11/20 06:07:30;;;;;;;4.80;2.70;;;11.70;99.90;;;;;;5048781;28;20261;-44
2023/11/20 06:09:56;;;;;;;5.05;3.10;;;11.70;99.90;;;;;;5050058;28;20202;-39
2023/11/20 06:12:22;;;;;;;4.07;2.90;;;11.60;99.90;;;;;;5046947;28;20203;-43
2023/11/20 06:14:48;;;;;;;6.10;2.50;;;11.60;99.90;;;;;;5048433;28;20193;-43
2023/11/20 06:17:14;;;;;;;4.10;2.38;;;11.60;99.90;;;;;;5047463;28;20436;-41
2023/11/20 06:19:40;;;;;;;4.53;2.60;;;11.60;99.90;;;;;;5046443;28;20197;-42
2023/11/20 06:22:06;;;;;;;4.18;2.38;;;11.60;99.90;;;;;;5050395;28;20187;-42
2023/11/20 06:24:33;;;;;;;4.22;2.20;;;11.60;99.90;;;;;;5050076;28;20195;-41
2023/11/20 06:26:59;;;;;;;4.95;2.30;;;11.60;99.90;;;;;;5058397;28;20218;-39
2023/11/20 06:29:25;;;;;;;5.70;2.40;;;11.50;99.90;;;;;;5047610;28;20183;-37
2023/11/20 06:31:51;;;;;;;4.18;2.40;;;11.60;99.90;;;;;;5047976;28;20256;-44
2023/11/20 06:34:16;;;;;;;3.85;2.72;;;11.50;99.90;;;;;;5048272;28;20201;-39
2023/11/20 06:36:42;;;;;;;3.45;2.50;;;11.50;99.90;;;;;;5046948;28;20717;-42
2023/11/20 06:39:08;;;;;;;3.50;2.42;;;11.50;99.90;;;;;;5047621;28;20281;-44
2023/11/20 06:41:34;;;;;;;2.72;2.40;;;11.50;99.90;;;;;;5048575;28;20186;-38
2023/11/20 06:44:01;;;;;;;4.57;2.40;;;11.50;99.90;;;;;;5050958;28;20760;-39
2023/11/20 06:46:26;;;;;;;3.15;2.55;;;11.50;99.90;;;;;;5048924;28;20233;-42
2023/11/20 06:48:52;;;;;;;3.47;2.17;;;11.50;99.90;;;;;;5048005;28;20344;-45
2023/11/20 06:51:18;;;;;;;5.68;2.50;;;11.50;99.90;;;;;;5049783;28;20201;-43
2023/11/20 06:53:44;;;;;;;8.30;2.63;;;11.50;99.90;;;;;;5062945;28;20202;-41
2023/11/20 06:56:17;;;;;;;4.80;2.78;;;11.40;99.90;;;;;;5045345;28;20191;-42
2023/11/20 06:58:43;;;;;;;7.55;3.30;;;11.50;99.90;;;;;;5046351;28;20437;-40
2023/11/20 07:01:09;;;;;;;5.32;2.72;;;11.40;99.90;;;;;;5046253;28;20727;-38
2023/11/20 07:03:35;;;;;;;5.43;3.08;;;11.50;99.90;;;;;;5046660;28;20312;-40
2023/11/20 07:06:02;;;;;;;5.78;2.90;;;11.40;99.90;;;;;;5047505;28;20251;-41
2023/11/20 07:08:28;;;;;;;6.85;3.10;;;11.40;99.90;;;;;;5050364;28;21141;-41
2023/11/20 07:10:54;;;;;;;5.10;2.78;;;11.40;99.90;;;;;;5049797;28;20216;-40
2023/11/20 07:13:20;;;;;;;4.47;2.80;;;11.40;99.90;;;;;;5045680;28;20210;-42
2023/11/20 07:15:46;;;;;;;5.50;3.08;;;11.40;99.90;;;;;;5048862;28;20243;-40
2023/11/20 07:18:12;;;;;;;4.88;3.00;;;11.40;99.90;;;;;;5065283;28;20186;-41
2023/11/20 07:20:38;;;;;;;5.55;3.38;;;11.40;99.90;;;;;;5050564;28;20215;-41
2023/11/20 07:23:05;;;;;;;5.60;2.78;;;11.40;99.90;;;;;;5044084;28;20199;-39
2023/11/20 07:25:33;;;;;;;8.93;3.53;;;11.30;99.90;;;;;;5046944;28;20199;-43
2023/11/20 07:28:02;;;;;;;6.65;3.53;;;11.30;99.90;;;;;;5047089;28;20248;-44
2023/11/20 07:30:32;;;;;;;6.13;3.10;;;11.30;99.90;;;;;;5046757;28;20214;-44
2023/11/20 07:32:58;;;;;;;6.50;3.42;;;11.30;99.90;;;;;;5046474;28;20210;-45
2023/11/20 07:35:24;;;;;;;4.45;2.95;;;11.30;99.90;;;;;;5048244;28;20190;-43
2023/11/20 07:37:50;;;;;;;5.78;2.50;;;11.30;99.90;;;;;;5045518;28;20200;-41
2023/11/20 07:40:18;;;;;;;6.25;2.63;;;11.30;99.90;;;;;;5047324;28;20224;-42
2023/11/20 07:42:45;;;;;;;4.50;2.80;;;11.30;99.90;;;;;;5047525;28;20561;-41
2023/11/20 07:45:12;;;;;;;4.55;2.97;;;11.30;99.90;;;;;;5064144;28;20190;-39
2023/11/20 07:47:39;;;;;;;6.80;3.10;;;11.30;99.90;;;;;;5046777;28;20186;-49
2023/11/20 07:50:06;;;;;;;4.82;2.80;;;11.30;99.90;;;;;;5045684;28;20230;-41
2023/11/20 07:52:32;;;;;;;4.22;3.10;;;11.30;99.90;;;;;;5049214;28;20221;-41
2023/11/20 07:54:59;;;;;;;5.32;2.92;;;11.30;99.90;;;;;;5045133;28;20191;-45
2023/11/20 07:57:26;;;;;;;4.32;2.70;;;11.30;99.90;;;;;;5046291;28;20199;-39
2023/11/20 07:59:52;;;;;;;7.40;2.88;;;11.30;99.90;;;;;;5048990;28;20198;-40
2023/11/20 08:02:19;;;;;;;8.10;2.65;;;11.30;99.90;;;;;;5044562;28;20233;-44
2023/11/20 08:04:46;;;;;;;5.72;2.63;;;11.30;99.90;;;;;;5063990;28;20277;-47
2023/11/20 08:07:16;;;;;;;12.70;2.80;;;11.30;99.90;;;;;;5049234;28;20216;-43
2023/11/20 08:09:42;;;;;;;6.95;2.80;;;11.20;99.90;;;;;;5045648;28;20187;-38
2023/11/20 08:12:08;;;;;;;9.77;3.00;;;11.20;99.90;;;;;;5047778;28;20217;-43
2023/11/20 08:14:34;;;;;;;5.13;2.60;;;11.20;99.90;;;;;;5048380;28;20183;-39
2023/11/20 08:17:01;;;;;;;6.47;2.90;;;11.20;99.90;;;;;;5046051;28;20254;-41
2023/11/20 08:19:27;;;;;;;9.20;2.55;;;11.20;99.90;;;;;;5045886;28;20191;-41
2023/11/20 08:21:53;;;;;;;7.35;3.22;;;11.20;99.90;;;;;;5046406;28;20191;-39
2023/11/20 08:24:19;;;;;;;8.38;3.22;;;11.10;99.90;;;;;;5045655;28;20197;-45
2023/11/20 08:26:48;;;;;;;9.32;3.83;;;11.20;99.90;;;;;;5046996;28;20195;-40
2023/11/20 08:29:17;;;;;;;12.05;4.03;;;11.10;99.90;;;;;;5045799;28;20705;-43
2023/11/20 08:31:43;;;;;;;14.52;5.22;;;11.10;99.90;;;;;;5060387;28;20514;-42
2023/11/20 08:34:09;;;;;;;17.80;6.55;;;11.10;99.90;;;;;;5046327;28;20202;-41
2023/11/20 08:36:35;;;;;;;18.10;6.75;;;11.10;99.90;;;;;;5046371;28;20191;-39
2023/11/20 08:39:05;;;;;;;24.08;6.50;;;11.20;99.90;;;;;;5048512;28;20312;-42
2023/11/20 08:41:31;;;;;;;28.48;5.68;;;11.10;99.90;;;;;;5050591;28;20199;-40
2023/11/20 08:43:59;;;;;;;24.75;6.70;;;11.20;99.90;;;;;;5050041;28;20202;-43
2023/11/20 08:46:25;;;;;;;20.20;5.50;;;11.20;99.90;;;;;;5052729;28;20261;-41
2023/11/20 08:48:51;;;;;;;24.52;5.90;;;11.20;99.90;;;;;;5049742;28;20234;-44
2023/11/20 08:51:17;;;;;;;27.45;5.60;;;11.30;99.90;;;;;;5049791;28;20190;-41
2023/11/20 08:53:43;;;;;;;30.70;6.18;;;11.20;99.90;;;;;;5051530;28;20675;-48
2023/11/20 08:56:10;;;;;;;20.50;5.40;;;11.20;99.90;;;;;;5048433;28;20195;-42
2023/11/20 08:58:36;;;;;;;28.88;5.95;;;11.20;99.90;;;;;;5050146;28;20195;-41
2023/11/20 09:01:03;;;;;;;29.45;5.95;;;11.20;99.90;;;;;;5053153;28;20518;-42
2023/11/20 09:03:29;;;;;;;30.20;5.72;;;11.20;99.90;;;;;;5048789;28;20671;-44
2023/11/20 09:05:54;;;;;;;24.52;5.60;;;11.30;99.90;;;;;;5049602;28;20248;-39
2023/11/20 09:08:20;;;;;;;30.48;6.38;;;11.30;99.90;;;;;;5051214;28;20224;-40
2023/11/20 09:10:46;;;;;;;23.85;5.05;;;11.20;99.90;;;;;;5052682;28;20202;-44
2023/11/20 09:13:12;;;;;;;22.98;5.38;;;11.20;99.90;;;;;;5049987;28;20210;-45
2023/11/20 09:15:38;;;;;;;28.45;5.85;;;11.20;99.90;;;;;;5051474;28;20183;-41
2023/11/20 09:18:04;;;;;;;33.17;5.60;;;11.20;99.90;;;;;;5048444;28;20183;-44
2023/11/20 09:20:31;;;;;;;28.75;5.15;;;11.30;99.90;;;;;;5047935;28;20247;-42
2023/11/20 09:22:56;;;;;;;36.60;5.80;;;11.20;99.90;;;;;;5048348;28;20195;-39
2023/11/20 09:25:23;;;;;;;30.42;5.32;;;11.30;99.90;;;;;;5051037;28;20543;-39
2023/11/20 09:27:49;;;;;;;34.92;6.10;;;11.30;99.90;;;;;;5048560;28;20187;-42
2023/11/20 09:30:16;;;;;;;37.08;5.63;;;11.30;99.90;;;;;;5052096;28;20183;-41
2023/11/20 09:32:42;;;;;;;36.33;5.80;;;11.40;99.90;;;;;;5048006;28;20207;-46
2023/11/20 09:35:11;;;;;;;28.63;5.22;;;11.40;99.90;;;;;;5051901;28;20632;-40
2023/11/20 09:37:37;;;;;;;30.95;5.25;;;11.40;99.90;;;;;;5049163;28;20220;-44
2023/11/20 09:40:04;;;;;;;24.02;4.72;;;11.40;99.90;;;;;;5048959;28;20608;-41
2023/11/20 09:42:30;;;;;;;35.05;5.13;;;11.40;99.90;;;;;;5051606;28;20195;-38
2023/11/20 09:45:00;;;;;;;30.15;5.10;;;11.40;99.90;;;;;;5068957;28;20186;-43
2023/11/20 09:47:30;;;;;;;30.33;4.55;;;11.40;99.90;;;;;;5048877;28;20591;-42
2023/11/20 09:49:58;;;;;;;26.75;4.53;;;11.50;99.90;;;;;;5047830;28;20250;-41
2023/11/20 09:52:26;;;;;;;32.35;5.20;;;11.40;99.90;;;;;;5065331;28;20279;-45
2023/11/20 09:54:58;;;;;;;25.13;5.03;;;11.50;99.90;;;;;;5049964;28;20175;-42
2023/11/20 09:57:27;;;;;;;21.52;4.13;;;11.50;99.90;;;;;;5048635;28;20708;-41
2023/11/20 09:59:57;;;;;;;16.13;3.85;;;11.50;99.90;;;;;;5051034;28;20700;-44
2023/11/20 10:02:28;;;;;;;25.17;3.88;;;11.50;99.90;;;;;;5049786;28;20187;-43
2023/11/20 10:04:55;;;;;;;32.45;4.38;;;11.50;99.90;;;;;;5047040;28;20236;-47
2023/11/20 10:07:26;;;;;;;26.00;4.10;;;11.60;99.90;;;;;;5052257;28;20206;-41
2023/11/20 10:09:56;;;;;;;18.88;4.15;;;11.60;99.90;;;;;;5049509;28;20266;-38
2023/11/20 10:12:23;;;;;;;22.52;4.45;;;11.60;99.90;;;;;;5051857;28;20194;-48
2023/11/20 10:14:48;;;;;;;28.77;4.90;;;11.60;99.90;;;;;;5052401;28;21261;-44
2023/11/20 10:17:19;;;;;;;23.48;3.85;;;11.70;99.90;;;;;;5045797;28;20229;-40
2023/11/20 10:19:45;;;;;;;29.10;4.78;;;11.70;99.90;;;;;;5046315;28;20590;-43
2023/11/20 10:22:11;;;;;;;29.05;5.00;;;11.70;99.90;;;;;;5048312;28;20275;-40
2023/11/20 10:24:42;;;;;;;32.90;4.57;;;11.70;99.90;;;;;;5046331;28;20201;-37
2023/11/20 10:27:07;;;;;;;30.90;4.90;;;11.80;99.90;;;;;;5049927;28;20187;-40
2023/11/20 10:29:33;;;;;;;22.02;4.45;;;11.80;99.90;;;;;;5044403;28;20194;-39
2023/11/20 10:32:01;;;;;;;33.70;5.30;;;11.80;99.90;;;;;;5047415;28;20207;-40
2023/11/20 10:34:27;;;;;;;24.80;5.68;;;11.80;99.90;;;;;;5046963;28;20287;-36
2023/11/20 10:37:04;;;;;;;29.45;5.38;;;11.80;99.90;;;;;;5049641;28;20191;-41
2023/11/20 10:39:32;;;;;;;29.90;5.03;;;11.80;99.90;;;;;;5048201;28;20210;-40
2023/11/20 10:41:58;;;;;;;27.65;5.18;;;11.80;99.90;;;;;;5050556;28;20731;-42
2023/11/20 10:44:29;;;;;;;28.80;5.00;;;11.80;99.90;;;;;;5047993;28;21361;-39
2023/11/20 10:46:55;;;;;;;31.23;5.43;;;11.80;99.90;;;;;;5051443;28;20218;-47
2023/11/20 10:49:23;;;;;;;29.45;5.18;;;11.80;99.90;;;;;;5044620;28;20222;-43
2023/11/20 10:51:55;;;;;;;25.73;5.30;;;11.90;99.90;;;;;;5052437;28;20214;-37
2023/11/20 10:54:28;;;;;;;27.25;5.10;;;11.90;99.90;;;;;;5062296;28;20620;-43
2023/11/20 10:57:03;;;;;;;30.00;5.43;;;11.90;99.90;;;;;;5048853;28;20211;-45
2023/11/20 10:59:35;;;;;;;26.73;4.85;;;11.90;99.90;;;;;;5046392;28;20198;-42
2023/11/20 11:02:06;;;;;;;38.95;5.47;;;12.00;99.90;;;;;;5045788;28;20191;-39
2023/11/20 11:04:33;;;;;;;29.00;5.88;;;12.00;99.90;;;;;;5047080;28;20320;-41
2023/11/20 11:07:01;;;;;;;22.35;4.43;;;12.00;99.90;;;;;;5044587;28;20270;-38
2023/11/20 11:09:30;;;;;;;23.52;5.10;;;12.00;99.90;;;;;;5045968;28;20230;-40
2023/11/20 11:11:58;;;;;;;31.67;5.18;;;12.10;99.90;;;;;;5047076;28;20682;-43
2023/11/20 11:14:24;;;;;;;31.50;4.85;;;12.10;99.90;;;;;;5049784;28;20194;-42
2023/11/20 11:17:01;;;;;;;28.42;5.15;;;12.20;99.90;;;;;;5045019;28;20455;-39
2023/11/20 11:19:37;;;;;;;36.80;4.97;;;12.20;99.90;;;;;;5047268;28;20182;-42
2023/11/20 11:22:10;;;;;;;24.08;4.55;;;12.30;99.90;;;;;;5048618;28;20635;-41
2023/11/20 11:24:40;;;;;;;35.28;5.25;;;12.30;99.90;;;;;;5044205;28;20191;-45
2023/11/20 11:27:22;;;;;;;32.33;5.57;;;12.30;99.90;;;;;;5047137;28;20221;-40
2023/11/20 11:29:56;;;;;;;28.88;4.40;;;12.40;99.90;;;;;;5048190;28;20821;-48
2023/11/20 11:32:56;;;;;;;28.00;4.70;;;12.40;99.90;;;;;;5045042;28;20301;-43
2023/11/20 11:35:28;;;;;;;26.60;4.35;;;12.50;99.90;;;;;;5046449;28;20195;-46
2023/11/20 11:38:18;;;;;;;33.35;5.15;;;12.60;99.90;;;;;;5047617;28;20198;-42
2023/11/20 11:40:54;;;;;;;29.35;5.30;;;12.70;99.90;;;;;;5045940;28;20175;-44
2023/11/20 11:43:34;;;;;;;30.35;4.65;;;12.70;99.90;;;;;;5046505;28;20210;-40
2023/11/20 11:46:03;;;;;;;22.98;4.03;;;12.80;99.90;;;;;;5047473;28;20662;-46
2023/11/20 11:48:36;;;;;;;31.42;5.28;;;12.80;99.90;;;;;;5048206;28;20234;-40
2023/11/20 11:51:04;;;;;;;34.65;5.50;;;12.80;99.90;;;;;;5046964;28;20195;-41
2023/11/20 11:53:31;;;;;;;24.30;4.97;;;12.80;99.90;;;;;;5047464;28;20228;-44
2023/11/20 11:56:02;;;;;;;28.85;3.85;;;12.80;99.90;;;;;;5040747;28;20616;-44
2023/11/20 11:58:32;;;;;;;24.52;4.70;;;12.80;99.90;;;;;;5043619;28;20178;-46
2023/11/20 12:01:18;;;;;;;31.92;6.20;;;12.80;99.90;;;;;;5046066;28;20189;-41
2023/11/20 12:03:44;;;;;;;29.52;4.70;;;12.80;99.90;;;;;;5048159;28;20187;-40
2023/11/20 12:06:13;;;;;;;28.60;4.38;;;12.80;99.90;;;;;;5049503;28;20187;-39
2023/11/20 12:08:39;;;;;;;27.33;6.38;;;12.90;99.90;;;;;;5045408;28;20198;-45
2023/11/20 12:11:05;;;;;;;20.63;3.72;;;12.80;99.90;;;;;;5049829;28;20183;-45
2023/11/20 12:13:31;;;;;;;33.55;4.65;;;12.90;99.90;;;;;;5054457;28;20218;-41
2023/11/20 12:16:03;;;;;;;21.13;3.70;;;12.80;99.90;;;;;;5049612;28;20187;-46
2023/11/20 12:18:33;;;;;;;27.27;4.05;;;12.80;99.90;;;;;;5052079;28;20248;-43
2023/11/20 12:21:07;;;;;;;21.23;3.47;;;12.70;99.90;;;;;;5051170;28;20670;-42
2023/11/20 12:23:38;;;;;;;20.35;4.25;;;12.70;99.90;;;;;;5052960;28;20214;-47
2023/11/20 12:26:09;;;;;;;25.65;5.45;;;12.80;99.90;;;;;;5049869;28;20696;-45
2023/11/20 12:28:37;;;;;;;18.00;4.28;;;12.70;99.90;;;;;;5050633;28;20198;-45
2023/11/20 12:31:05;;;;;;;18.73;3.97;;;12.70;99.90;;;;;;5051614;28;20191;-49
2023/11/20 12:33:39;;;;;;;23.65;3.95;;;12.70;99.90;;;;;;5049559;28;20215;-42
2023/11/20 12:36:06;;;;;;;22.23;4.80;;;12.80;99.90;;;;;;5052705;28;20184;-43
2023/11/20 12:38:33;;;;;;;25.85;4.82;;;12.80;99.90;;;;;;5053261;28;20190;-44
2023/11/20 12:41:03;;;;;;;20.52;4.45;;;12.80;99.90;;;;;;5051808;28;20673;-45